»·PEaware :: SWA3302 KOAK-KBLI

SWA3302 :: KOAK-KBLI

FLIGHT INFORMATION

Flight Status: Arrived
Operator:
Southwest Airlines
More flights by this operator :: More flights under this callsign
Pilot: Tyler J. (19619)
Aircraft: BOEING 737-700
(B737)
More flights by this aircraft type
Origin: KOAK Metro Oakland Intl
United States
Destination: KBLI Bellingham Intl
United States
More flights between these airports :: More routes between these airports
Route: OAK5 OAK GRTFL OED J1 SEA PAE MADEE5
File this flight plan on PilotEdge
Remarks: RMK / SIMBRIEF
Altitude:
(Current/Filed)
40,000ft
Speed:
(Current/Filed)
453kts
Departed: 20-Oct-23 07:26 AM
Arrived: 20-Oct-23 09:12 AM
Distance/Time
Traveled:
665nm/1:45
Distance/Time
To Go:
Arrived

Flight Plot

Page will automatically refresh every two minutes.

Flight plan parsing failed; only flown route is shown


Map Options




Map Legend


Flown Route
Filed Route
Departure Airport
Arrival Airport
Navaid (VOR, NDB)
Fix

Horizontal Profiles

Position Reports

Time Latitude Longitude Heading Altitude Ground
Speed
20-Oct-23 06:59 37.709836 -122.212753 127 14ft 0kts
20-Oct-23 07:00 37.709836 -122.212753 127 14ft 0kts
20-Oct-23 07:01 37.709836 -122.212753 127 14ft 0kts
20-Oct-23 07:02 37.709836 -122.212753 127 14ft 0kts
20-Oct-23 07:03 37.709836 -122.212753 127 14ft 0kts
20-Oct-23 07:04 37.709836 -122.212753 127 14ft 0kts
20-Oct-23 07:05 37.709836 -122.212753 127 14ft 0kts
20-Oct-23 07:06 37.709836 -122.212753 127 14ft 0kts
20-Oct-23 07:07 37.709836 -122.212753 127 14ft 0kts
20-Oct-23 07:08 37.709836 -122.212753 127 14ft 0kts
20-Oct-23 07:09 37.709836 -122.212753 127 14ft 0kts
20-Oct-23 07:10 37.709836 -122.212753 127 14ft 0kts
20-Oct-23 07:11 37.709836 -122.212753 127 14ft 0kts
20-Oct-23 07:12 37.709836 -122.212753 127 14ft 0kts
20-Oct-23 07:13 37.709836 -122.212753 127 14ft 0kts
20-Oct-23 07:14 37.709836 -122.212753 127 14ft 0kts
20-Oct-23 07:15 37.710180 -122.213330 126 15ft 2kts
20-Oct-23 07:16 37.710208 -122.213379 126 15ft 0kts
20-Oct-23 07:17 37.710208 -122.213379 126 15ft 0kts
20-Oct-23 07:18 37.710208 -122.213379 126 15ft 0kts
20-Oct-23 07:19 37.709799 -122.213787 228 17ft 7kts
20-Oct-23 07:20 37.708715 -122.215654 257 16ft 13kts
20-Oct-23 07:21 37.705773 -122.216909 130 19ft 13kts
20-Oct-23 07:22 37.703050 -122.213741 160 17ft 12kts
20-Oct-23 07:23 37.702881 -122.213665 160 17ft 0kts
20-Oct-23 07:24 37.702852 -122.213652 160 17ft 1kts
20-Oct-23 07:25 37.704971 -122.219450 310 18ft 105kts
20-Oct-23 07:26 37.735787 -122.267244 309 1935ft 208kts
20-Oct-23 07:27 37.781439 -122.307344 11 2219ft 227kts
20-Oct-23 07:28 37.845942 -122.293699 9 5650ft 272kts
20-Oct-23 07:29 37.924047 -122.282544 7 9574ft 292kts
20-Oct-23 07:30 38.008741 -122.272096 5 13022ft 318kts
20-Oct-23 07:31 38.100311 -122.261152 5 16025ft 359kts
20-Oct-23 07:32 38.206404 -122.248472 5 18844ft 392kts
20-Oct-23 07:33 38.317634 -122.235129 6 21703ft 410kts
20-Oct-23 07:34 38.433911 -122.242506 354 24238ft 430kts
20-Oct-23 07:35 38.554705 -122.262459 354 26414ft 444kts
20-Oct-23 07:36 38.679259 -122.282082 354 28388ft 459kts
20-Oct-23 07:37 38.808166 -122.302322 354 30173ft 473kts
20-Oct-23 07:38 38.940127 -122.323144 354 31571ft 483kts
20-Oct-23 07:39 39.073558 -122.344288 353 33311ft 480kts
20-Oct-23 07:40 39.206131 -122.365357 352 34799ft 478kts
20-Oct-23 07:41 39.337824 -122.386363 352 36098ft 476kts
20-Oct-23 07:42 39.468915 -122.407355 351 37344ft 473kts
20-Oct-23 07:43 39.599247 -122.428306 351 38515ft 472kts
20-Oct-23 07:44 39.729477 -122.449319 351 39411ft 471kts
20-Oct-23 07:45 39.859198 -122.470337 351 39990ft 474kts
20-Oct-23 07:46 39.989460 -122.491505 351 40011ft 468kts
20-Oct-23 07:47 40.117991 -122.512484 351 40003ft 464kts
20-Oct-23 07:48 40.246140 -122.533487 351 40015ft 465kts
20-Oct-23 07:49 40.374982 -122.554684 351 40021ft 469kts
20-Oct-23 07:50 40.505222 -122.576185 351 40021ft 473kts
20-Oct-23 07:51 40.635821 -122.597829 351 40025ft 474kts
20-Oct-23 07:52 40.766702 -122.619604 351 40052ft 474kts
20-Oct-23 07:53 40.896893 -122.641353 350 40068ft 472kts
20-Oct-23 07:54 41.026975 -122.663171 350 40080ft 471kts
20-Oct-23 07:55 41.156662 -122.685010 350 40081ft 470kts
20-Oct-23 07:56 41.286366 -122.706944 350 40087ft 470kts
20-Oct-23 07:57 41.416035 -122.728958 350 40106ft 472kts
20-Oct-23 07:58 41.547051 -122.751289 350 40118ft 475kts
20-Oct-23 07:59 41.678083 -122.773711 350 40143ft 475kts
20-Oct-23 08:00 41.808992 -122.796203 350 40134ft 474kts
20-Oct-23 08:01 41.939322 -122.818692 350 40119ft 472kts
20-Oct-23 08:02 42.069944 -122.841330 350 40086ft 472kts
20-Oct-23 08:03 42.199947 -122.863946 350 40089ft 472kts
20-Oct-23 08:04 42.330040 -122.886677 350 40105ft 472kts
20-Oct-23 08:05 42.460827 -122.909616 350 40107ft 474kts
20-Oct-23 08:06 42.593135 -122.903131 2 40088ft 478kts
20-Oct-23 08:07 42.726076 -122.890252 1 40063ft 480kts
20-Oct-23 08:08 42.859701 -122.877751 1 40057ft 481kts
20-Oct-23 08:09 42.993202 -122.865125 1 40055ft 481kts
20-Oct-23 08:10 43.125741 -122.852559 1 40058ft 482kts
20-Oct-23 08:11 43.259613 -122.839808 1 40055ft 482kts
20-Oct-23 08:12 43.393305 -122.827023 1 40051ft 482kts
20-Oct-23 08:13 43.526955 -122.814184 1 40057ft 483kts
20-Oct-23 08:14 43.661355 -122.801210 1 40060ft 483kts
20-Oct-23 08:15 43.795214 -122.788234 0 40063ft 483kts
20-Oct-23 08:16 43.929382 -122.775169 0 40064ft 483kts
20-Oct-23 08:17 44.063653 -122.762038 0 40066ft 484kts
20-Oct-23 08:18 44.198021 -122.748836 0 40062ft 485kts
20-Oct-23 08:19 44.332793 -122.735530 0 40066ft 485kts
20-Oct-23 08:20 44.467230 -122.722199 0 40074ft 486kts
20-Oct-23 08:21 44.602248 -122.708748 359 40072ft 486kts
20-Oct-23 08:22 44.737485 -122.695210 359 40081ft 486kts
20-Oct-23 08:23 44.872246 -122.681659 359 40076ft 487kts
20-Oct-23 08:24 45.007542 -122.667989 359 40077ft 487kts
20-Oct-23 08:25 45.142522 -122.654287 359 40099ft 487kts
20-Oct-23 08:26 45.277598 -122.640509 359 40105ft 488kts
20-Oct-23 08:27 45.413220 -122.626610 358 40090ft 489kts
20-Oct-23 08:28 45.548761 -122.612649 358 40095ft 489kts
20-Oct-23 08:29 45.684949 -122.598553 358 40111ft 490kts
20-Oct-23 08:30 45.820746 -122.581552 1 40087ft 492kts
20-Oct-23 08:31 45.956768 -122.558041 0 40084ft 492kts
20-Oct-23 08:32 46.092797 -122.535595 0 40105ft 493kts
20-Oct-23 08:33 46.229305 -122.513117 0 40104ft 493kts
20-Oct-23 08:34 46.365653 -122.490509 359 40100ft 493kts
20-Oct-23 08:35 46.501167 -122.467928 359 40114ft 494kts
20-Oct-23 08:36 46.636065 -122.445292 1 40156ft 481kts
20-Oct-23 08:37 46.768794 -122.422990 1 40114ft 479kts
20-Oct-23 08:38 46.900856 -122.400747 1 40118ft 479kts
20-Oct-23 08:39 47.034625 -122.378257 1 37950ft 487kts
20-Oct-23 08:40 47.168469 -122.355538 2 34782ft 487kts
20-Oct-23 08:41 47.295077 -122.333891 2 31573ft 464kts
20-Oct-23 08:42 47.421451 -122.312308 1 28871ft 451kts
20-Oct-23 08:43 47.542959 -122.302137 355 26428ft 429kts
20-Oct-23 08:44 47.661872 -122.295108 355 23788ft 425kts
20-Oct-23 08:45 47.778818 -122.287333 355 21032ft 414kts
20-Oct-23 08:46 47.891909 -122.279840 355 18422ft 401kts
20-Oct-23 08:47 47.997307 -122.299570 341 15816ft 370kts
20-Oct-23 08:48 48.094519 -122.328907 342 13211ft 347kts
20-Oct-23 08:49 48.187318 -122.356434 343 10836ft 333kts
20-Oct-23 08:50 48.270155 -122.380769 342 10036ft 273kts
20-Oct-23 08:51 48.342870 -122.402516 344 8658ft 262kts
20-Oct-23 08:52 48.413767 -122.423705 346 7261ft 257kts
20-Oct-23 08:53 48.481131 -122.442059 352 6082ft 247kts
20-Oct-23 08:54 48.549134 -122.454032 352 5597ft 253kts
20-Oct-23 08:55 48.620699 -122.467318 352 5997ft 259kts
20-Oct-23 08:56 48.683746 -122.510130 337 6336ft 254kts
20-Oct-23 08:57 48.756337 -122.520373 356 6012ft 257kts
20-Oct-23 08:58 48.826007 -122.525427 356 5846ft 229kts
20-Oct-23 08:59 48.886065 -122.529971 357 4578ft 199kts
20-Oct-23 09:00 48.941094 -122.534174 357 4003ft 198kts
20-Oct-23 09:01 48.996125 -122.538461 355 4005ft 198kts
20-Oct-23 09:02 49.043222 -122.579292 325 2988ft 197kts
20-Oct-23 09:03 49.090855 -122.596505 48 2000ft 196kts
20-Oct-23 09:04 49.069587 -122.546551 168 2014ft 186kts
20-Oct-23 09:05 49.017455 -122.538622 178 1997ft 187kts
20-Oct-23 09:06 48.965883 -122.538225 179 2005ft 184kts
20-Oct-23 09:08 48.914501 -122.538014 179 2012ft 186kts
20-Oct-23 09:09 48.863510 -122.537803 180 1448ft 167kts
20-Oct-23 09:10 48.824344 -122.537664 180 642ft 132kts
20-Oct-23 09:11 48.790411 -122.537572 179 176ft 62kts
20-Oct-23 09:12 48.784203 -122.535648 4 178ft 0kts
20-Oct-23 09:13 48.787799 -122.535836 359 177ft 35kts
20-Oct-23 09:14 48.794741 -122.534409 34 174ft 6kts
20-Oct-23 09:15 48.795239 -122.533721 53 173ft 0kts
20-Oct-23 09:16 48.795239 -122.533721 53 173ft 0kts
20-Oct-23 09:17 48.795239 -122.533721 53 173ft 0kts
20-Oct-23 09:18 48.795239 -122.533721 53 173ft 0kts
20-Oct-23 09:19 48.795239 -122.533721 53 173ft 0kts
20-Oct-23 09:20 48.795239 -122.533721 53 173ft 0kts
20-Oct-23 09:21 48.795239 -122.533721 53 173ft 0kts
20-Oct-23 09:22 48.795239 -122.533721 53 173ft 0kts
20-Oct-23 09:23 48.795239 -122.533721 53 173ft 0kts
20-Oct-23 09:24 48.795239 -122.533721 53 173ft 0kts
20-Oct-23 09:25 48.795239 -122.533721 53 173ft 0kts
20-Oct-23 09:26 48.795239 -122.533721 53 173ft 0kts

Navigation Log

Ident Type
Flight plan parsing failed, navigation log unavailable